sensor_id;sensor_type;location;lat;lon;timestamp;temperature;humidity
12688;DHT22;6408;59.388;17.798;2023-01-23T00:00:26;-3.30;99.90
12688;DHT22;6408;59.388;17.798;2023-01-23T00:02:55;-3.30;99.90
12688;DHT22;6408;59.388;17.798;2023-01-23T00:05:23;-3.30;99.90
12688;DHT22;6408;59.388;17.798;2023-01-23T00:07:50;-3.30;99.90
12688;DHT22;6408;59.388;17.798;2023-01-23T00:10:18;-3.30;99.90
12688;DHT22;6408;59.388;17.798;2023-01-23T00:12:46;-3.30;99.90
12688;DHT22;6408;59.388;17.798;2023-01-23T00:15:16;-3.30;99.90
12688;DHT22;6408;59.388;17.798;2023-01-23T00:17:43;-3.20;99.90
12688;DHT22;6408;59.388;17.798;2023-01-23T00:20:11;-3.30;99.90
12688;DHT22;6408;59.388;17.798;2023-01-23T00:22:39;-3.30;99.90
12688;DHT22;6408;59.388;17.798;2023-01-23T00:25:07;-3.30;99.90
12688;DHT22;6408;59.388;17.798;2023-01-23T00:27:35;-3.30;99.90
12688;DHT22;6408;59.388;17.798;2023-01-23T00:30:03;-3.40;99.90
12688;DHT22;6408;59.388;17.798;2023-01-23T00:32:32;-3.40;99.90
12688;DHT22;6408;59.388;17.798;2023-01-23T00:34:59;-3.40;99.90
12688;DHT22;6408;59.388;17.798;2023-01-23T00:37:27;-3.40;99.90
12688;DHT22;6408;59.388;17.798;2023-01-23T00:39:54;-3.40;99.90
12688;DHT22;6408;59.388;17.798;2023-01-23T00:42:22;-3.40;99.90
12688;DHT22;6408;59.388;17.798;2023-01-23T00:44:49;-3.30;99.90
12688;DHT22;6408;59.388;17.798;2023-01-23T00:47:17;-3.30;99.90
12688;DHT22;6408;59.388;17.798;2023-01-23T00:49:46;-3.20;99.90
12688;DHT22;6408;59.388;17.798;2023-01-23T00:52:14;-3.20;99.90
12688;DHT22;6408;59.388;17.798;2023-01-23T00:54:41;-3.20;99.90
12688;DHT22;6408;59.388;17.798;2023-01-23T00:57:09;-3.20;99.90
12688;DHT22;6408;59.388;17.798;2023-01-23T00:59:36;-3.20;99.90
12688;DHT22;6408;59.388;17.798;2023-01-23T01:02:04;-3.20;99.90
12688;DHT22;6408;59.388;17.798;2023-01-23T01:04:31;-3.20;99.90
12688;DHT22;6408;59.388;17.798;2023-01-23T01:07:01;-3.20;99.90
12688;DHT22;6408;59.388;17.798;2023-01-23T01:09:28;-3.30;99.90
12688;DHT22;6408;59.388;17.798;2023-01-23T01:11:56;-3.30;99.90
12688;DHT22;6408;59.388;17.798;2023-01-23T01:14:24;-3.30;99.90
12688;DHT22;6408;59.388;17.798;2023-01-23T01:16:52;-3.30;99.90
12688;DHT22;6408;59.388;17.798;2023-01-23T01:19:19;-3.30;99.90
12688;DHT22;6408;59.388;17.798;2023-01-23T01:21:47;-3.30;99.90
12688;DHT22;6408;59.388;17.798;2023-01-23T01:24:16;-3.30;99.90
12688;DHT22;6408;59.388;17.798;2023-01-23T01:26:43;-3.20;99.90
12688;DHT22;6408;59.388;17.798;2023-01-23T01:29:11;-3.20;99.90
12688;DHT22;6408;59.388;17.798;2023-01-23T01:31:38;-3.20;99.90
12688;DHT22;6408;59.388;17.798;2023-01-23T01:34:06;-3.10;99.90
12688;DHT22;6408;59.388;17.798;2023-01-23T01:36:34;-3.10;99.90
12688;DHT22;6408;59.388;17.798;2023-01-23T01:39:03;-3.20;99.90
12688;DHT22;6408;59.388;17.798;2023-01-23T01:41:33;-3.30;99.90
12688;DHT22;6408;59.388;17.798;2023-01-23T01:44:00;-3.20;99.90
12688;DHT22;6408;59.388;17.798;2023-01-23T01:46:28;-3.30;99.90
12688;DHT22;6408;59.388;17.798;2023-01-23T01:49:03;-3.30;99.90
12688;DHT22;6408;59.388;17.798;2023-01-23T01:51:36;-3.20;99.90
12688;DHT22;6408;59.388;17.798;2023-01-23T01:54:09;-3.20;99.90
12688;DHT22;6408;59.388;17.798;2023-01-23T01:56:43;-3.20;99.90
12688;DHT22;6408;59.388;17.798;2023-01-23T01:59:13;-3.20;99.90
12688;DHT22;6408;59.388;17.798;2023-01-23T02:01:41;-3.30;99.90
12688;DHT22;6408;59.388;17.798;2023-01-23T02:04:11;-3.20;99.90
12688;DHT22;6408;59.388;17.798;2023-01-23T02:06:40;-3.20;99.90
12688;DHT22;6408;59.388;17.798;2023-01-23T02:09:11;-3.20;99.90
12688;DHT22;6408;59.388;17.798;2023-01-23T02:11:42;-3.30;99.90
12688;DHT22;6408;59.388;17.798;2023-01-23T02:14:10;-3.30;99.90
12688;DHT22;6408;59.388;17.798;2023-01-23T02:16:40;-3.40;99.90
12688;DHT22;6408;59.388;17.798;2023-01-23T02:19:23;-3.50;99.90
12688;DHT22;6408;59.388;17.798;2023-01-23T02:22:02;-3.60;99.90
12688;DHT22;6408;59.388;17.798;2023-01-23T02:24:35;-3.60;99.90
12688;DHT22;6408;59.388;17.798;2023-01-23T02:27:06;-3.60;99.90
12688;DHT22;6408;59.388;17.798;2023-01-23T02:29:41;-3.40;99.90
12688;DHT22;6408;59.388;17.798;2023-01-23T02:32:09;-3.50;99.90
12688;DHT22;6408;59.388;17.798;2023-01-23T02:34:36;-3.50;99.90
12688;DHT22;6408;59.388;17.798;2023-01-23T02:37:05;-3.50;99.90
12688;DHT22;6408;59.388;17.798;2023-01-23T02:39:34;-3.50;99.90
12688;DHT22;6408;59.388;17.798;2023-01-23T02:42:02;-3.60;99.90
12688;DHT22;6408;59.388;17.798;2023-01-23T02:44:32;-3.60;99.90
12688;DHT22;6408;59.388;17.798;2023-01-23T02:47:01;-3.60;99.90
12688;DHT22;6408;59.388;17.798;2023-01-23T02:49:28;-3.60;99.90
12688;DHT22;6408;59.388;17.798;2023-01-23T02:51:56;-3.50;99.90
12688;DHT22;6408;59.388;17.798;2023-01-23T02:54:24;-3.60;99.90
12688;DHT22;6408;59.388;17.798;2023-01-23T02:56:52;-3.50;99.90
12688;DHT22;6408;59.388;17.798;2023-01-23T02:59:19;-3.60;99.90
12688;DHT22;6408;59.388;17.798;2023-01-23T03:02:05;-3.60;99.90
12688;DHT22;6408;59.388;17.798;2023-01-23T03:04:32;-3.70;99.90
12688;DHT22;6408;59.388;17.798;2023-01-23T03:07:00;-3.60;99.90
12688;DHT22;6408;59.388;17.798;2023-01-23T03:09:28;-3.50;99.90
12688;DHT22;6408;59.388;17.798;2023-01-23T03:11:55;-3.60;99.90
12688;DHT22;6408;59.388;17.798;2023-01-23T03:14:23;-3.70;99.90
12688;DHT22;6408;59.388;17.798;2023-01-23T03:16:51;-3.70;99.90
12688;DHT22;6408;59.388;17.798;2023-01-23T03:19:23;-3.60;99.90
12688;DHT22;6408;59.388;17.798;2023-01-23T03:21:52;-3.50;99.90
12688;DHT22;6408;59.388;17.798;2023-01-23T03:24:20;-3.50;99.90
12688;DHT22;6408;59.388;17.798;2023-01-23T03:26:49;-3.50;99.90
12688;DHT22;6408;59.388;17.798;2023-01-23T03:29:18;-3.50;99.90
12688;DHT22;6408;59.388;17.798;2023-01-23T03:32:04;-3.60;99.90
12688;DHT22;6408;59.388;17.798;2023-01-23T03:34:34;-3.60;99.90
12688;DHT22;6408;59.388;17.798;2023-01-23T03:37:01;-3.50;99.90
12688;DHT22;6408;59.388;17.798;2023-01-23T03:39:29;-3.50;99.90
12688;DHT22;6408;59.388;17.798;2023-01-23T03:42:14;-3.50;99.90
12688;DHT22;6408;59.388;17.798;2023-01-23T03:44:42;-3.60;99.90
12688;DHT22;6408;59.388;17.798;2023-01-23T03:47:09;-3.60;99.90
12688;DHT22;6408;59.388;17.798;2023-01-23T03:49:39;-3.50;99.90
12688;DHT22;6408;59.388;17.798;2023-01-23T03:52:06;-3.60;99.90
12688;DHT22;6408;59.388;17.798;2023-01-23T03:54:34;-3.50;99.90
12688;DHT22;6408;59.388;17.798;2023-01-23T03:57:02;-3.60;99.90
12688;DHT22;6408;59.388;17.798;2023-01-23T03:59:29;-3.60;99.90
12688;DHT22;6408;59.388;17.798;2023-01-23T04:01:57;-3.60;99.90
12688;DHT22;6408;59.388;17.798;2023-01-23T04:04:25;-3.70;99.90
12688;DHT22;6408;59.388;17.798;2023-01-23T04:06:55;-3.70;99.90
12688;DHT22;6408;59.388;17.798;2023-01-23T04:09:22;-3.70;99.90
12688;DHT22;6408;59.388;17.798;2023-01-23T04:11:52;-3.60;99.90
12688;DHT22;6408;59.388;17.798;2023-01-23T04:14:20;-3.70;99.90
12688;DHT22;6408;59.388;17.798;2023-01-23T04:16:47;-3.70;99.90
12688;DHT22;6408;59.388;17.798;2023-01-23T04:19:14;-3.70;99.90
12688;DHT22;6408;59.388;17.798;2023-01-23T04:21:44;-3.60;99.90
12688;DHT22;6408;59.388;17.798;2023-01-23T04:24:15;-3.60;99.90
12688;DHT22;6408;59.388;17.798;2023-01-23T04:26:42;-3.70;99.90
12688;DHT22;6408;59.388;17.798;2023-01-23T04:29:10;-3.70;99.90
12688;DHT22;6408;59.388;17.798;2023-01-23T04:31:37;-3.70;99.90
12688;DHT22;6408;59.388;17.798;2023-01-23T04:34:06;-3.70;99.90
12688;DHT22;6408;59.388;17.798;2023-01-23T04:36:34;-3.70;99.90
12688;DHT22;6408;59.388;17.798;2023-01-23T04:39:02;-3.60;99.90
12688;DHT22;6408;59.388;17.798;2023-01-23T04:41:32;-3.70;99.90
12688;DHT22;6408;59.388;17.798;2023-01-23T04:44:00;-3.80;99.90
12688;DHT22;6408;59.388;17.798;2023-01-23T04:46:45;-3.90;99.90
12688;DHT22;6408;59.388;17.798;2023-01-23T04:49:14;-3.80;99.90
12688;DHT22;6408;59.388;17.798;2023-01-23T04:51:41;-3.90;99.90
12688;DHT22;6408;59.388;17.798;2023-01-23T04:54:10;-3.90;99.90
12688;DHT22;6408;59.388;17.798;2023-01-23T04:56:39;-3.80;99.90
12688;DHT22;6408;59.388;17.798;2023-01-23T04:59:07;-3.90;99.90
12688;DHT22;6408;59.388;17.798;2023-01-23T05:01:35;-3.90;99.90
12688;DHT22;6408;59.388;17.798;2023-01-23T05:04:03;-3.90;99.90
12688;DHT22;6408;59.388;17.798;2023-01-23T05:06:31;-3.90;99.90
12688;DHT22;6408;59.388;17.798;2023-01-23T05:08:58;-4.00;99.90
12688;DHT22;6408;59.388;17.798;2023-01-23T05:11:26;-4.00;99.90
12688;DHT22;6408;59.388;17.798;2023-01-23T05:13:55;-4.00;99.90
12688;DHT22;6408;59.388;17.798;2023-01-23T05:16:23;-4.00;99.90
12688;DHT22;6408;59.388;17.798;2023-01-23T05:18:50;-4.00;99.90
12688;DHT22;6408;59.388;17.798;2023-01-23T05:21:18;-3.90;99.90
12688;DHT22;6408;59.388;17.798;2023-01-23T05:23:45;-3.90;99.90
12688;DHT22;6408;59.388;17.798;2023-01-23T05:26:13;-3.90;99.90
12688;DHT22;6408;59.388;17.798;2023-01-23T05:28:40;-3.90;99.90
12688;DHT22;6408;59.388;17.798;2023-01-23T05:31:10;-3.80;99.90
12688;DHT22;6408;59.388;17.798;2023-01-23T05:33:37;-4.00;99.90
12688;DHT22;6408;59.388;17.798;2023-01-23T05:36:05;-4.00;99.90
12688;DHT22;6408;59.388;17.798;2023-01-23T05:38:33;-4.20;99.90
12688;DHT22;6408;59.388;17.798;2023-01-23T05:41:01;-4.20;99.90
12688;DHT22;6408;59.388;17.798;2023-01-23T05:43:29;-4.20;99.90
12688;DHT22;6408;59.388;17.798;2023-01-23T05:45:58;-4.20;99.90
12688;DHT22;6408;59.388;17.798;2023-01-23T05:48:27;-4.20;99.90
12688;DHT22;6408;59.388;17.798;2023-01-23T05:50:55;-4.30;99.90
12688;DHT22;6408;59.388;17.798;2023-01-23T05:53:22;-4.30;99.90
12688;DHT22;6408;59.388;17.798;2023-01-23T05:55:50;-4.30;99.90
12688;DHT22;6408;59.388;17.798;2023-01-23T05:58:17;-4.30;99.90
12688;DHT22;6408;59.388;17.798;2023-01-23T06:00:45;-4.20;99.90
12688;DHT22;6408;59.388;17.798;2023-01-23T06:03:13;-4.40;99.90
12688;DHT22;6408;59.388;17.798;2023-01-23T06:05:42;-4.40;99.90
12688;DHT22;6408;59.388;17.798;2023-01-23T06:08:10;-4.40;99.90
12688;DHT22;6408;59.388;17.798;2023-01-23T06:10:38;-4.50;99.90
12688;DHT22;6408;59.388;17.798;2023-01-23T06:13:06;-4.60;99.90
12688;DHT22;6408;59.388;17.798;2023-01-23T06:15:38;-4.50;99.90
12688;DHT22;6408;59.388;17.798;2023-01-23T06:18:05;-4.50;99.90
12688;DHT22;6408;59.388;17.798;2023-01-23T06:20:34;-4.50;99.90
12688;DHT22;6408;59.388;17.798;2023-01-23T06:23:06;-4.50;99.90
12688;DHT22;6408;59.388;17.798;2023-01-23T06:25:35;-4.50;99.90
12688;DHT22;6408;59.388;17.798;2023-01-23T06:28:04;-4.50;99.90
12688;DHT22;6408;59.388;17.798;2023-01-23T06:30:32;-4.40;99.90
12688;DHT22;6408;59.388;17.798;2023-01-23T06:33:00;-4.40;99.90
12688;DHT22;6408;59.388;17.798;2023-01-23T06:35:27;-4.40;99.90
12688;DHT22;6408;59.388;17.798;2023-01-23T06:37:55;-4.30;99.90
12688;DHT22;6408;59.388;17.798;2023-01-23T06:40:24;-4.40;99.90
12688;DHT22;6408;59.388;17.798;2023-01-23T06:42:53;-4.40;99.90
12688;DHT22;6408;59.388;17.798;2023-01-23T06:45:21;-4.30;99.90
12688;DHT22;6408;59.388;17.798;2023-01-23T06:47:51;-4.20;99.90
12688;DHT22;6408;59.388;17.798;2023-01-23T06:50:18;-4.30;99.90
12688;DHT22;6408;59.388;17.798;2023-01-23T06:52:46;-4.30;99.90
12688;DHT22;6408;59.388;17.798;2023-01-23T06:55:14;-4.30;99.90
12688;DHT22;6408;59.388;17.798;2023-01-23T06:57:43;-4.30;99.90
12688;DHT22;6408;59.388;17.798;2023-01-23T07:00:12;-4.30;99.90
12688;DHT22;6408;59.388;17.798;2023-01-23T07:02:39;-4.30;99.90
12688;DHT22;6408;59.388;17.798;2023-01-23T07:05:08;-4.50;99.90
12688;DHT22;6408;59.388;17.798;2023-01-23T07:07:35;-4.40;99.90
12688;DHT22;6408;59.388;17.798;2023-01-23T07:10:04;-4.30;99.90
12688;DHT22;6408;59.388;17.798;2023-01-23T07:12:41;-4.30;99.90
12688;DHT22;6408;59.388;17.798;2023-01-23T07:15:09;-4.30;99.90
12688;DHT22;6408;59.388;17.798;2023-01-23T07:17:38;-4.40;99.90
12688;DHT22;6408;59.388;17.798;2023-01-23T07:20:07;-4.30;99.90
12688;DHT22;6408;59.388;17.798;2023-01-23T07:22:35;-4.20;99.90
12688;DHT22;6408;59.388;17.798;2023-01-23T07:25:03;-4.10;99.90
12688;DHT22;6408;59.388;17.798;2023-01-23T07:27:31;-4.20;99.90
12688;DHT22;6408;59.388;17.798;2023-01-23T07:30:01;-4.10;99.90
12688;DHT22;6408;59.388;17.798;2023-01-23T07:32:28;-4.20;99.90
12688;DHT22;6408;59.388;17.798;2023-01-23T07:34:56;-4.20;99.90
12688;DHT22;6408;59.388;17.798;2023-01-23T07:37:26;-4.20;99.90
12688;DHT22;6408;59.388;17.798;2023-01-23T07:39:53;-4.20;99.90
12688;DHT22;6408;59.388;17.798;2023-01-23T07:42:22;-4.10;99.90
12688;DHT22;6408;59.388;17.798;2023-01-23T07:44:50;-4.20;99.90
12688;DHT22;6408;59.388;17.798;2023-01-23T07:47:19;-4.10;99.90
12688;DHT22;6408;59.388;17.798;2023-01-23T07:49:46;-4.10;99.90
12688;DHT22;6408;59.388;17.798;2023-01-23T07:52:14;-4.10;99.90
12688;DHT22;6408;59.388;17.798;2023-01-23T07:54:41;-4.20;99.90
12688;DHT22;6408;59.388;17.798;2023-01-23T07:57:09;-4.20;99.90
12688;DHT22;6408;59.388;17.798;2023-01-23T07:59:36;-4.20;99.90
12688;DHT22;6408;59.388;17.798;2023-01-23T08:02:04;-4.20;99.90
12688;DHT22;6408;59.388;17.798;2023-01-23T08:04:33;-4.20;99.90
12688;DHT22;6408;59.388;17.798;2023-01-23T08:07:01;-4.20;99.90
12688;DHT22;6408;59.388;17.798;2023-01-23T08:09:28;-4.20;99.90
12688;DHT22;6408;59.388;17.798;2023-01-23T08:11:55;-4.10;99.90
12688;DHT22;6408;59.388;17.798;2023-01-23T08:14:23;-4.10;99.90
12688;DHT22;6408;59.388;17.798;2023-01-23T08:16:51;-4.10;99.90
12688;DHT22;6408;59.388;17.798;2023-01-23T08:19:18;-4.10;99.90
12688;DHT22;6408;59.388;17.798;2023-01-23T08:21:58;-4.10;99.90
12688;DHT22;6408;59.388;17.798;2023-01-23T08:24:28;-4.30;99.90
12688;DHT22;6408;59.388;17.798;2023-01-23T08:27:01;-4.30;99.90
12688;DHT22;6408;59.388;17.798;2023-01-23T08:29:30;-4.30;99.90
12688;DHT22;6408;59.388;17.798;2023-01-23T08:31:58;-4.20;99.90
12688;DHT22;6408;59.388;17.798;2023-01-23T08:34:26;-4.40;99.90
12688;DHT22;6408;59.388;17.798;2023-01-23T08:36:58;-4.40;99.90
12688;DHT22;6408;59.388;17.798;2023-01-23T08:39:26;-4.30;99.90
12688;DHT22;6408;59.388;17.798;2023-01-23T08:42:00;-4.30;99.90
12688;DHT22;6408;59.388;17.798;2023-01-23T08:44:27;-4.20;99.90
12688;DHT22;6408;59.388;17.798;2023-01-23T08:47:00;-4.30;99.90
12688;DHT22;6408;59.388;17.798;2023-01-23T08:49:30;-4.30;99.90
12688;DHT22;6408;59.388;17.798;2023-01-23T08:51:59;-4.40;99.90
12688;DHT22;6408;59.388;17.798;2023-01-23T08:54:27;-4.30;99.90
12688;DHT22;6408;59.388;17.798;2023-01-23T08:56:54;-4.30;99.90
12688;DHT22;6408;59.388;17.798;2023-01-23T08:59:21;-4.20;99.90
12688;DHT22;6408;59.388;17.798;2023-01-23T09:01:49;-4.20;99.90
12688;DHT22;6408;59.388;17.798;2023-01-23T09:04:16;-4.10;99.90
12688;DHT22;6408;59.388;17.798;2023-01-23T09:06:43;-4.10;99.90
12688;DHT22;6408;59.388;17.798;2023-01-23T09:09:13;-4.20;99.90
12688;DHT22;6408;59.388;17.798;2023-01-23T09:11:40;-4.30;99.90
12688;DHT22;6408;59.388;17.798;2023-01-23T09:14:08;-4.10;99.90
12688;DHT22;6408;59.388;17.798;2023-01-23T09:16:35;-4.10;99.90
12688;DHT22;6408;59.388;17.798;2023-01-23T09:19:03;-4.10;99.90
12688;DHT22;6408;59.388;17.798;2023-01-23T09:21:32;-4.10;99.90
12688;DHT22;6408;59.388;17.798;2023-01-23T09:24:00;-4.10;99.90
12688;DHT22;6408;59.388;17.798;2023-01-23T09:26:29;-4.10;99.90
12688;DHT22;6408;59.388;17.798;2023-01-23T09:28:57;-4.10;99.90
12688;DHT22;6408;59.388;17.798;2023-01-23T09:31:26;-4.10;99.90
12688;DHT22;6408;59.388;17.798;2023-01-23T09:33:53;-4.10;99.90
12688;DHT22;6408;59.388;17.798;2023-01-23T09:36:21;-4.10;99.90
12688;DHT22;6408;59.388;17.798;2023-01-23T09:38:49;-4.10;99.90
12688;DHT22;6408;59.388;17.798;2023-01-23T09:41:19;-4.10;99.90
12688;DHT22;6408;59.388;17.798;2023-01-23T09:43:52;-4.00;99.90
12688;DHT22;6408;59.388;17.798;2023-01-23T09:46:26;-4.00;99.90
12688;DHT22;6408;59.388;17.798;2023-01-23T09:48:59;-3.90;99.90
12688;DHT22;6408;59.388;17.798;2023-01-23T09:51:38;-3.90;99.90
12688;DHT22;6408;59.388;17.798;2023-01-23T09:54:17;-3.90;99.90
12688;DHT22;6408;59.388;17.798;2023-01-23T09:56:50;-3.90;99.90
12688;DHT22;6408;59.388;17.798;2023-01-23T09:59:28;-4.00;99.90
12688;DHT22;6408;59.388;17.798;2023-01-23T10:01:59;-3.90;99.90
12688;DHT22;6408;59.388;17.798;2023-01-23T10:04:27;-3.80;99.90
12688;DHT22;6408;59.388;17.798;2023-01-23T10:07:06;-3.80;99.90
12688;DHT22;6408;59.388;17.798;2023-01-23T10:09:59;-3.80;99.90
12688;DHT22;6408;59.388;17.798;2023-01-23T10:12:38;-3.70;99.90
12688;DHT22;6408;59.388;17.798;2023-01-23T10:15:18;-3.70;99.90
12688;DHT22;6408;59.388;17.798;2023-01-23T10:17:52;-3.60;99.90
12688;DHT22;6408;59.388;17.798;2023-01-23T10:20:41;-3.70;99.90
12688;DHT22;6408;59.388;17.798;2023-01-23T10:23:22;-3.60;99.90
12688;DHT22;6408;59.388;17.798;2023-01-23T10:25:55;-3.60;99.90
12688;DHT22;6408;59.388;17.798;2023-01-23T10:28:30;-3.60;99.90
12688;DHT22;6408;59.388;17.798;2023-01-23T10:31:03;-3.60;99.90
12688;DHT22;6408;59.388;17.798;2023-01-23T10:33:39;-3.60;99.90
12688;DHT22;6408;59.388;17.798;2023-01-23T10:36:17;-3.60;99.90
12688;DHT22;6408;59.388;17.798;2023-01-23T10:38:52;-3.70;99.90
12688;DHT22;6408;59.388;17.798;2023-01-23T10:41:20;-3.60;99.90
12688;DHT22;6408;59.388;17.798;2023-01-23T10:43:50;-3.50;99.90
12688;DHT22;6408;59.388;17.798;2023-01-23T10:46:21;-3.40;99.90
12688;DHT22;6408;59.388;17.798;2023-01-23T10:48:50;-3.40;99.90
12688;DHT22;6408;59.388;17.798;2023-01-23T10:51:28;-3.30;99.90
12688;DHT22;6408;59.388;17.798;2023-01-23T10:54:11;-3.40;99.90
12688;DHT22;6408;59.388;17.798;2023-01-23T10:56:48;-3.40;99.90
12688;DHT22;6408;59.388;17.798;2023-01-23T10:59:33;-3.40;99.90
12688;DHT22;6408;59.388;17.798;2023-01-23T11:02:20;-3.30;99.90
12688;DHT22;6408;59.388;17.798;2023-01-23T11:04:52;-3.30;99.90
12688;DHT22;6408;59.388;17.798;2023-01-23T11:07:22;-3.30;99.90
12688;DHT22;6408;59.388;17.798;2023-01-23T11:09:52;-3.30;99.90
12688;DHT22;6408;59.388;17.798;2023-01-23T11:12:21;-3.20;99.90
12688;DHT22;6408;59.388;17.798;2023-01-23T11:14:49;-3.10;99.90
12688;DHT22;6408;59.388;17.798;2023-01-23T11:17:21;-3.10;99.90
12688;DHT22;6408;59.388;17.798;2023-01-23T11:19:50;-3.10;99.90
12688;DHT22;6408;59.388;17.798;2023-01-23T11:22:37;-3.00;99.90
12688;DHT22;6408;59.388;17.798;2023-01-23T11:25:26;-3.10;99.90
12688;DHT22;6408;59.388;17.798;2023-01-23T11:27:58;-3.10;99.90
12688;DHT22;6408;59.388;17.798;2023-01-23T11:30:33;-3.00;99.90
12688;DHT22;6408;59.388;17.798;2023-01-23T11:33:10;-3.10;99.90
12688;DHT22;6408;59.388;17.798;2023-01-23T11:35:52;-3.00;99.90
12688;DHT22;6408;59.388;17.798;2023-01-23T11:38:26;-3.00;99.90
12688;DHT22;6408;59.388;17.798;2023-01-23T11:40:53;-2.90;99.90
12688;DHT22;6408;59.388;17.798;2023-01-23T11:43:21;-2.90;99.90
12688;DHT22;6408;59.388;17.798;2023-01-23T11:46:01;-2.90;99.90
12688;DHT22;6408;59.388;17.798;2023-01-23T11:48:47;-3.00;99.90
12688;DHT22;6408;59.388;17.798;2023-01-23T11:51:21;-2.90;99.90
12688;DHT22;6408;59.388;17.798;2023-01-23T11:53:57;-2.90;99.90
12688;DHT22;6408;59.388;17.798;2023-01-23T11:56:46;-2.90;99.90
12688;DHT22;6408;59.388;17.798;2023-01-23T11:59:40;-3.00;99.90
12688;DHT22;6408;59.388;17.798;2023-01-23T12:05:30;-2.90;99.90
12688;DHT22;6408;59.388;17.798;2023-01-23T12:08:18;-2.90;99.90
12688;DHT22;6408;59.388;17.798;2023-01-23T12:10:52;-2.90;99.90
12688;DHT22;6408;59.388;17.798;2023-01-23T12:13:44;-2.80;99.90
12688;DHT22;6408;59.388;17.798;2023-01-23T12:16:21;-2.80;99.90
12688;DHT22;6408;59.388;17.798;2023-01-23T12:19:03;-2.80;99.90
12688;DHT22;6408;59.388;17.798;2023-01-23T12:21:43;-2.80;99.90
12688;DHT22;6408;59.388;17.798;2023-01-23T12:24:21;-2.90;99.90
12688;DHT22;6408;59.388;17.798;2023-01-23T12:26:59;-2.90;99.90
12688;DHT22;6408;59.388;17.798;2023-01-23T12:32:51;-3.00;99.90
12688;DHT22;6408;59.388;17.798;2023-01-23T12:35:31;-3.00;99.90
12688;DHT22;6408;59.388;17.798;2023-01-23T12:41:12;-3.10;99.90
12688;DHT22;6408;59.388;17.798;2023-01-23T12:43:45;-3.00;99.90
12688;DHT22;6408;59.388;17.798;2023-01-23T12:46:18;-3.00;99.90
12688;DHT22;6408;59.388;17.798;2023-01-23T12:48:52;-3.00;99.90
12688;DHT22;6408;59.388;17.798;2023-01-23T12:51:23;-3.00;99.90
12688;DHT22;6408;59.388;17.798;2023-01-23T12:53:54;-3.10;99.90
12688;DHT22;6408;59.388;17.798;2023-01-23T12:56:29;-3.10;99.90
12688;DHT22;6408;59.388;17.798;2023-01-23T12:59:03;-3.00;99.90
12688;DHT22;6408;59.388;17.798;2023-01-23T13:01:57;-3.10;99.90
12688;DHT22;6408;59.388;17.798;2023-01-23T13:04:46;-3.10;99.90
12688;DHT22;6408;59.388;17.798;2023-01-23T13:07:24;-3.00;99.90
12688;DHT22;6408;59.388;17.798;2023-01-23T13:10:15;-3.20;99.90
12688;DHT22;6408;59.388;17.798;2023-01-23T13:12:48;-3.10;99.90
12688;DHT22;6408;59.388;17.798;2023-01-23T13:15:21;-3.10;99.90
12688;DHT22;6408;59.388;17.798;2023-01-23T13:17:56;-3.10;99.90
12688;DHT22;6408;59.388;17.798;2023-01-23T13:20:29;-3.20;99.90
12688;DHT22;6408;59.388;17.798;2023-01-23T13:23:18;-3.20;99.90
12688;DHT22;6408;59.388;17.798;2023-01-23T13:25:46;-3.10;99.90
12688;DHT22;6408;59.388;17.798;2023-01-23T13:28:33;-3.20;99.90
12688;DHT22;6408;59.388;17.798;2023-01-23T13:31:02;-3.10;99.90
12688;DHT22;6408;59.388;17.798;2023-01-23T13:33:51;-3.10;99.90
12688;DHT22;6408;59.388;17.798;2023-01-23T13:36:33;-3.10;99.90
12688;DHT22;6408;59.388;17.798;2023-01-23T13:41:51;-3.00;99.90
12688;DHT22;6408;59.388;17.798;2023-01-23T13:44:21;-3.00;99.90
12688;DHT22;6408;59.388;17.798;2023-01-23T13:47:11;-2.90;99.90
12688;DHT22;6408;59.388;17.798;2023-01-23T13:50:04;-3.00;99.90
12688;DHT22;6408;59.388;17.798;2023-01-23T13:52:36;-3.00;99.90
12688;DHT22;6408;59.388;17.798;2023-01-23T13:55:40;-3.00;99.90
12688;DHT22;6408;59.388;17.798;2023-01-23T13:58:27;-3.00;99.90
12688;DHT22;6408;59.388;17.798;2023-01-23T14:01:07;-3.00;99.90
12688;DHT22;6408;59.388;17.798;2023-01-23T14:03:57;-3.00;99.90
12688;DHT22;6408;59.388;17.798;2023-01-23T14:06:43;-3.00;99.90
12688;DHT22;6408;59.388;17.798;2023-01-23T14:09:21;-3.00;99.90
12688;DHT22;6408;59.388;17.798;2023-01-23T14:11:55;-3.20;99.90
12688;DHT22;6408;59.388;17.798;2023-01-23T14:14:23;-3.10;99.90
12688;DHT22;6408;59.388;17.798;2023-01-23T14:17:11;-3.10;99.90
12688;DHT22;6408;59.388;17.798;2023-01-23T14:19:51;-3.10;99.90
12688;DHT22;6408;59.388;17.798;2023-01-23T14:22:18;-3.10;99.90
12688;DHT22;6408;59.388;17.798;2023-01-23T14:24:47;-3.10;99.90
12688;DHT22;6408;59.388;17.798;2023-01-23T14:27:19;-3.00;99.90
12688;DHT22;6408;59.388;17.798;2023-01-23T14:29:56;-3.10;99.90
12688;DHT22;6408;59.388;17.798;2023-01-23T14:32:28;-3.10;99.90
12688;DHT22;6408;59.388;17.798;2023-01-23T14:34:56;-3.10;99.90
12688;DHT22;6408;59.388;17.798;2023-01-23T14:37:23;-3.10;99.90
12688;DHT22;6408;59.388;17.798;2023-01-23T14:39:52;-3.10;99.90
12688;DHT22;6408;59.388;17.798;2023-01-23T14:42:26;-3.10;99.90
12688;DHT22;6408;59.388;17.798;2023-01-23T14:44:55;-3.10;99.90
12688;DHT22;6408;59.388;17.798;2023-01-23T14:47:27;-3.10;99.90
12688;DHT22;6408;59.388;17.798;2023-01-23T14:49:56;-3.20;99.90
12688;DHT22;6408;59.388;17.798;2023-01-23T14:52:26;-3.10;99.90
12688;DHT22;6408;59.388;17.798;2023-01-23T14:54:54;-3.10;99.90
12688;DHT22;6408;59.388;17.798;2023-01-23T14:57:22;-3.10;99.90
12688;DHT22;6408;59.388;17.798;2023-01-23T14:59:53;-3.20;99.90
12688;DHT22;6408;59.388;17.798;2023-01-23T15:02:25;-3.10;99.90
12688;DHT22;6408;59.388;17.798;2023-01-23T15:05:26;-3.10;99.90
12688;DHT22;6408;59.388;17.798;2023-01-23T15:07:56;-3.10;99.90
12688;DHT22;6408;59.388;17.798;2023-01-23T15:10:27;-3.10;99.90
12688;DHT22;6408;59.388;17.798;2023-01-23T15:12:57;-3.10;99.90
12688;DHT22;6408;59.388;17.798;2023-01-23T15:15:27;-3.10;99.90
12688;DHT22;6408;59.388;17.798;2023-01-23T15:17:55;-3.10;99.90
12688;DHT22;6408;59.388;17.798;2023-01-23T15:20:31;-3.10;99.90
12688;DHT22;6408;59.388;17.798;2023-01-23T15:23:21;-3.10;99.90
12688;DHT22;6408;59.388;17.798;2023-01-23T15:25:48;-3.10;99.90
12688;DHT22;6408;59.388;17.798;2023-01-23T15:28:28;-3.10;99.90
12688;DHT22;6408;59.388;17.798;2023-01-23T15:30:56;-3.00;99.90
12688;DHT22;6408;59.388;17.798;2023-01-23T15:33:26;-3.10;99.90
12688;DHT22;6408;59.388;17.798;2023-01-23T15:36:04;-3.10;99.90
12688;DHT22;6408;59.388;17.798;2023-01-23T15:38:32;-3.00;99.90
12688;DHT22;6408;59.388;17.798;2023-01-23T15:41:06;-3.00;99.90
12688;DHT22;6408;59.388;17.798;2023-01-23T15:43:33;-3.10;99.90
12688;DHT22;6408;59.388;17.798;2023-01-23T15:46:01;-3.00;99.90
12688;DHT22;6408;59.388;17.798;2023-01-23T15:48:28;-3.00;99.90
12688;DHT22;6408;59.388;17.798;2023-01-23T15:50:55;-3.00;99.90
12688;DHT22;6408;59.388;17.798;2023-01-23T15:53:25;-3.00;99.90
12688;DHT22;6408;59.388;17.798;2023-01-23T15:55:52;-3.00;99.90
12688;DHT22;6408;59.388;17.798;2023-01-23T15:58:19;-3.00;99.90
12688;DHT22;6408;59.388;17.798;2023-01-23T16:00:46;-3.00;99.90
12688;DHT22;6408;59.388;17.798;2023-01-23T16:03:14;-3.10;99.90
12688;DHT22;6408;59.388;17.798;2023-01-23T16:05:41;-3.10;99.90
12688;DHT22;6408;59.388;17.798;2023-01-23T16:08:17;-3.10;99.90